Time;durP1;ratioP1;P1;durP2;ratioP2;P2;SDS_P1;SDS_P2;PMS_P1;PMS_P2;Temp;Humidity;BMP_temperature;BMP_pressure;BME280_temperature;BME280_humidity;BME280_pressure;Samples;Min_cycle;Max_cycle;Signal;HPM_P1;HPM_P2
2022/10/22 00:02:58;;;;;;;23.35;7.30;;;;;;;;;;6316341;28;20428;-79
2022/10/22 00:06:00;;;;;;;14.95;7.13;;;;;;;;;;6321973;27;20051;-79
2022/10/22 00:09:02;;;;;;;48.53;8.18;;;;;;;;;;6308568;28;20511;-81
2022/10/22 00:12:04;;;;;;;23.25;7.70;;;;;;;;;;6316304;28;20880;-80
2022/10/22 00:15:06;;;;;;;14.85;7.60;;;;;;;;;;6324574;28;20158;-79
2022/10/22 00:18:08;;;;;;;16.25;7.88;;;;;;;;;;6305422;28;20051;-80
2022/10/22 00:21:11;;;;;;;16.02;7.60;;;;;;;;;;6327687;27;20526;-79
2022/10/22 00:24:12;;;;;;;37.47;9.95;;;;;;;;;;6329815;28;20050;-80
2022/10/22 00:27:14;;;;;;;20.38;8.57;;;;;;;;;;6314650;28;20047;-79
2022/10/22 00:30:16;;;;;;;16.70;8.38;;;;;;;;;;6312531;28;20044;-79
2022/10/22 00:33:17;;;;;;;23.77;8.70;;;;;;;;;;6326029;27;20040;-79
2022/10/22 00:36:19;;;;;;;20.15;8.32;;;;;;;;;;6325377;27;20407;-80
2022/10/22 00:39:23;;;;;;;34.83;9.45;;;;;;;;;;6327247;27;20056;-80
2022/10/22 00:42:26;;;;;;;27.25;8.73;;;;;;;;;;6307973;27;20153;-79
2022/10/22 00:45:28;;;;;;;84.15;12.35;;;;;;;;;;6326285;27;20054;-79
2022/10/22 00:48:32;;;;;;;35.78;10.27;;;;;;;;;;6306692;28;20059;-80
2022/10/22 00:51:34;;;;;;;38.50;10.77;;;;;;;;;;6330184;28;20044;-81
2022/10/22 00:54:37;;;;;;;40.42;11.13;;;;;;;;;;6312495;28;20047;-80
2022/10/22 00:57:39;;;;;;;25.92;9.77;;;;;;;;;;6313891;27;20162;-79
2022/10/22 01:00:41;;;;;;;19.20;9.23;;;;;;;;;;6335176;27;20107;-80
2022/10/22 01:03:43;;;;;;;19.52;9.77;;;;;;;;;;6331468;27;20067;-80
2022/10/22 01:06:46;;;;;;;17.20;9.23;;;;;;;;;;6333791;27;20062;-80
2022/10/22 01:10:09;;;;;;;17.13;8.52;;;;;;;;;;6331378;27;20139;-79
2022/10/22 01:13:29;;;;;;;40.65;9.57;;;;;;;;;;6326840;27;20047;-79
2022/10/22 01:17:00;;;;;;;21.30;9.70;;;;;;;;;;6326919;28;20143;-81
2022/10/22 01:20:40;;;;;;;54.60;11.10;;;;;;;;;;6277406;27;20055;-80
2022/10/22 01:24:00;;;;;;;26.23;8.85;;;;;;;;;;6338638;27;20035;-80
2022/10/22 01:27:19;;;;;;;30.65;8.18;;;;;;;;;;6326772;27;20060;-81
2022/10/22 01:30:22;;;;;;;26.45;8.63;;;;;;;;;;6328434;27;20039;-80
2022/10/22 01:33:25;;;;;;;16.40;7.53;;;;;;;;;;6324047;28;20042;-80
2022/10/22 01:36:30;;;;;;;14.57;7.05;;;;;;;;;;6329618;27;20863;-80
2022/10/22 01:39:33;;;;;;;19.25;7.90;;;;;;;;;;6322525;27;20333;-80
2022/10/22 01:42:35;;;;;;;;;;;;;;;;;;6328820;27;20055;-81
2022/10/22 01:45:49;;;;;;;21.30;8.20;;;;;;;;;;6303452;28;19928;-80
2022/10/22 01:49:11;;;;;;;21.38;9.23;;;;;;;;;;6324999;27;20063;-80
2022/10/22 01:52:47;;;;;;;28.10;8.27;;;;;;;;;;6330941;27;20052;-79
2022/10/22 01:56:07;;;;;;;18.92;8.00;;;;;;;;;;6329206;27;20043;-79
2022/10/22 01:59:49;;;;;;;16.30;7.72;;;;;;;;;;6269108;28;20070;-81
2022/10/22 02:03:17;;;;;;;13.68;7.05;;;;;;;;;;6318590;27;20049;-79
2022/10/22 02:06:26;;;;;;;14.38;7.57;;;;;;;;;;6292216;28;20131;-80
2022/10/22 02:09:30;;;;;;;11.70;6.53;;;;;;;;;;6283828;27;20509;-79
2022/10/22 02:12:33;;;;;;;14.10;7.43;;;;;;;;;;6287015;27;20733;-80
2022/10/22 02:15:36;;;;;;;14.10;6.78;;;;;;;;;;6300357;28;20044;-80
2022/10/22 02:18:41;;;;;;;14.40;6.90;;;;;;;;;;6324792;27;20043;-80
2022/10/22 02:21:43;;;;;;;12.88;6.65;;;;;;;;;;6327636;27;20043;-81
2022/10/22 02:24:47;;;;;;;13.07;6.13;;;;;;;;;;6309979;27;20103;-80
2022/10/22 02:28:09;;;;;;;12.48;6.88;;;;;;;;;;6311178;27;20081;-80
2022/10/22 02:31:21;;;;;;;11.68;6.38;;;;;;;;;;6333138;27;20051;-80
2022/10/22 02:34:27;;;;;;;14.40;7.07;;;;;;;;;;6309274;27;20698;-80
2022/10/22 02:37:29;;;;;;;13.73;7.15;;;;;;;;;;6299224;28;20838;-80
2022/10/22 02:40:34;;;;;;;16.77;8.85;;;;;;;;;;6301610;28;20047;-80
2022/10/22 02:43:44;;;;;;;15.52;9.60;;;;;;;;;;6317409;27;20489;-80
2022/10/22 02:46:45;;;;;;;16.27;8.88;;;;;;;;;;6329309;27;20511;-79
2022/10/22 02:49:47;;;;;;;17.80;8.60;;;;;;;;;;6320433;27;20043;-79
2022/10/22 02:52:48;;;;;;;14.40;8.27;;;;;;;;;;6306996;28;20044;-80
2022/10/22 02:55:50;;;;;;;12.75;7.20;;;;;;;;;;6305319;27;20173;-79
2022/10/22 02:58:52;;;;;;;15.15;8.07;;;;;;;;;;6331432;27;20056;-80
2022/10/22 03:01:53;;;;;;;17.60;8.18;;;;;;;;;;6324343;27;20052;-79
2022/10/22 03:04:55;;;;;;;15.35;7.50;;;;;;;;;;6323294;27;20130;-80
2022/10/22 03:07:57;;;;;;;16.58;7.80;;;;;;;;;;6324428;27;20043;-79
2022/10/22 03:11:04;;;;;;;15.05;7.70;;;;;;;;;;6321080;27;20039;-80
2022/10/22 03:14:05;;;;;;;19.30;8.27;;;;;;;;;;6324452;28;20051;-80
2022/10/22 03:17:08;;;;;;;15.70;9.32;;;;;;;;;;6321777;28;20097;-80
2022/10/22 03:20:10;;;;;;;13.07;7.10;;;;;;;;;;6308082;28;20047;-80
2022/10/22 03:23:15;;;;;;;12.90;6.80;;;;;;;;;;6323408;27;20052;-80
2022/10/22 03:26:17;;;;;;;10.20;6.18;;;;;;;;;;6325624;27;20111;-80
2022/10/22 03:29:22;;;;;;;11.43;6.47;;;;;;;;;;6306761;28;20059;-80
2022/10/22 03:32:24;;;;;;;11.52;6.85;;;;;;;;;;6321433;28;20039;-80
2022/10/22 03:35:26;;;;;;;12.38;6.68;;;;;;;;;;6327692;28;20062;-80
2022/10/22 03:38:28;;;;;;;13.02;7.00;;;;;;;;;;6309318;27;20047;-80
2022/10/22 03:41:30;;;;;;;12.67;6.23;;;;;;;;;;6327371;28;20039;-80
2022/10/22 03:44:32;;;;;;;15.77;8.43;;;;;;;;;;6327234;27;20055;-80
2022/10/22 03:47:35;;;;;;;12.93;8.27;;;;;;;;;;6329879;27;20052;-80
2022/10/22 03:50:37;;;;;;;;;;;;;;;;;;6310950;28;20323;-80
2022/10/22 03:53:38;;;;;;;12.95;8.00;;;;;;;;;;6328930;28;20038;-80
2022/10/22 03:56:40;;;;;;;18.45;9.05;;;;;;;;;;6324545;27;20052;-80
2022/10/22 03:59:44;;;;;;;18.55;9.90;;;;;;;;;;6327183;27;23749;-80
2022/10/22 04:02:45;;;;;;;16.23;9.18;;;;;;;;;;6307329;28;20040;-81
2022/10/22 04:05:47;;;;;;;19.02;10.25;;;;;;;;;;6324480;28;20044;-80
2022/10/22 04:08:49;;;;;;;17.48;9.63;;;;;;;;;;6326898;27;20046;-80
2022/10/22 04:11:50;;;;;;;14.60;9.90;;;;;;;;;;6320454;28;20063;-79
2022/10/22 04:14:52;;;;;;;17.75;9.40;;;;;;;;;;6308527;27;20063;-81
2022/10/22 04:17:54;;;;;;;18.58;9.57;;;;;;;;;;6321769;27;20054;-81
2022/10/22 04:20:56;;;;;;;18.52;10.07;;;;;;;;;;6319739;28;20047;-79
2022/10/22 04:23:57;;;;;;;18.80;10.23;;;;;;;;;;6311014;28;20036;-81
2022/10/22 04:26:59;;;;;;;18.63;10.23;;;;;;;;;;6308650;27;20044;-80
2022/10/22 04:30:02;;;;;;;16.55;10.10;;;;;;;;;;6314329;27;20046;-79
2022/10/22 04:33:04;;;;;;;;;;;;;;;;;;6315142;27;20031;-79
2022/10/22 04:36:12;;;;;;;30.08;7.07;;;;;;;;;;6331072;28;19927;-80
2022/10/22 04:39:14;;;;;;;28.90;8.20;;;;;;;;;;6331180;27;20080;-80
2022/10/22 04:42:15;;;;;;;21.02;8.60;;;;;;;;;;6312623;27;20531;-80
2022/10/22 04:45:17;;;;;;;23.80;8.52;;;;;;;;;;6313023;27;20051;-80
2022/10/22 04:48:19;;;;;;;29.00;8.93;;;;;;;;;;6329253;27;20158;-79
2022/10/22 04:51:23;;;;;;;77.22;10.43;;;;;;;;;;6313085;27;20315;-79
2022/10/22 04:54:25;;;;;;;18.48;9.23;;;;;;;;;;6309606;28;23172;-80
2022/10/22 04:57:32;;;;;;;54.80;9.50;;;;;;;;;;6308263;27;20063;-80
2022/10/22 05:00:34;;;;;;;16.90;8.90;;;;;;;;;;6336351;27;20052;-80
2022/10/22 05:03:36;;;;;;;16.77;8.48;;;;;;;;;;6339331;27;20087;-79
2022/10/22 05:06:37;;;;;;;12.75;7.32;;;;;;;;;;6337053;27;20129;-79
2022/10/22 05:09:39;;;;;;;67.88;9.85;;;;;;;;;;6346862;27;20043;-79
2022/10/22 05:12:41;;;;;;;13.32;7.45;;;;;;;;;;6317003;27;20058;-79
2022/10/22 05:15:42;;;;;;;18.20;7.80;;;;;;;;;;6302038;28;20040;-79
2022/10/22 05:18:44;;;;;;;14.45;7.65;;;;;;;;;;6308369;27;20044;-79
2022/10/22 05:21:46;;;;;;;13.35;7.47;;;;;;;;;;6311888;27;20054;-79
2022/10/22 05:24:48;;;;;;;12.93;7.32;;;;;;;;;;6307385;27;20121;-79
2022/10/22 05:27:49;;;;;;;13.43;7.25;;;;;;;;;;6307493;27;20047;-79
2022/10/22 05:30:55;;;;;;;17.45;8.77;;;;;;;;;;6319358;27;20040;-79
2022/10/22 05:33:57;;;;;;;26.63;7.65;;;;;;;;;;6306463;27;20059;-79
2022/10/22 05:36:58;;;;;;;12.30;7.30;;;;;;;;;;6323959;27;20043;-79
2022/10/22 05:40:00;;;;;;;28.08;7.72;;;;;;;;;;6300841;28;20040;-79
2022/10/22 05:43:21;;;;;;;13.90;7.43;;;;;;;;;;6319257;27;20035;-79
2022/10/22 05:46:25;;;;;;;15.10;9.40;;;;;;;;;;6318573;28;20046;-79
2022/10/22 05:49:27;;;;;;;17.60;10.95;;;;;;;;;;6318249;27;20051;-79
2022/10/22 05:52:28;;;;;;;18.90;11.15;;;;;;;;;;6320572;27;20046;-79
2022/10/22 05:55:35;;;;;;;16.05;10.48;;;;;;;;;;6296930;27;21221;-79
2022/10/22 05:58:37;;;;;;;17.35;12.18;;;;;;;;;;6297252;27;20089;-79
2022/10/22 06:01:39;;;;;;;16.70;9.70;;;;;;;;;;6320913;27;20059;-79
2022/10/22 06:04:41;;;;;;;18.00;10.88;;;;;;;;;;6313013;28;20055;-78
2022/10/22 06:07:43;;;;;;;21.55;14.05;;;;;;;;;;6300879;28;20430;-79
2022/10/22 06:10:44;;;;;;;25.00;12.25;;;;;;;;;;6321430;27;20042;-79
2022/10/22 06:13:47;;;;;;;21.15;11.60;;;;;;;;;;6308145;27;20044;-79
2022/10/22 06:16:50;;;;;;;22.52;11.07;;;;;;;;;;6318745;27;20046;-78
2022/10/22 06:19:52;;;;;;;29.02;9.35;;;;;;;;;;6307664;28;20044;-78
2022/10/22 06:22:53;;;;;;;21.20;11.38;;;;;;;;;;6322604;27;20059;-79
2022/10/22 06:25:57;;;;;;;22.25;13.35;;;;;;;;;;6301699;28;20131;-79
2022/10/22 06:28:59;;;;;;;27.48;16.27;;;;;;;;;;6315705;27;20051;-78
2022/10/22 06:32:01;;;;;;;19.58;12.15;;;;;;;;;;6305122;28;20052;-79
2022/10/22 06:35:02;;;;;;;16.67;9.98;;;;;;;;;;6300930;28;20043;-79
2022/10/22 06:38:05;;;;;;;15.50;9.55;;;;;;;;;;6316686;27;20384;-78
2022/10/22 06:41:14;;;;;;;24.13;12.50;;;;;;;;;;6297374;28;20043;-78
2022/10/22 06:44:19;;;;;;;21.50;12.52;;;;;;;;;;6296323;27;20430;-78
2022/10/22 06:47:20;;;;;;;22.55;11.98;;;;;;;;;;6314559;28;20073;-78
2022/10/22 06:50:22;;;;;;;20.45;10.43;;;;;;;;;;6297165;28;20051;-78
2022/10/22 06:53:23;;;;;;;13.38;8.60;;;;;;;;;;6315489;27;20047;-78
2022/10/22 06:56:28;;;;;;;17.05;11.75;;;;;;;;;;6295762;28;21394;-79
2022/10/22 06:59:29;;;;;;;14.00;8.80;;;;;;;;;;6298648;28;20047;-79
2022/10/22 07:02:31;;;;;;;11.15;7.95;;;;;;;;;;6298804;27;20059;-76
2022/10/22 07:05:33;;;;;;;8.32;6.47;;;;;;;;;;6300610;28;20054;-78
2022/10/22 07:08:35;;;;;;;8.55;6.60;;;;;;;;;;6298512;28;20047;-79
2022/10/22 07:11:40;;;;;;;;;;;;;;;;;;6301403;28;20195;-79
2022/10/22 07:14:43;;;;;;;16.52;7.80;;;;;;;;;;6299616;27;19935;-79
2022/10/22 07:17:44;;;;;;;13.20;7.47;;;;;;;;;;6280986;28;20043;-79
2022/10/22 07:20:48;;;;;;;13.57;7.28;;;;;;;;;;6298425;28;20043;-79
2022/10/22 07:23:51;;;;;;;11.77;6.60;;;;;;;;;;6315526;27;20057;-79
2022/10/22 07:26:52;;;;;;;7.80;5.10;;;;;;;;;;6319584;27;20039;-78
2022/10/22 07:29:54;;;;;;;9.52;6.00;;;;;;;;;;6296217;27;20084;-79
2022/10/22 07:32:56;;;;;;;9.70;5.15;;;;;;;;;;6292091;27;20050;-78
2022/10/22 07:35:59;;;;;;;11.00;7.30;;;;;;;;;;6320957;27;20502;-79
2022/10/22 07:39:02;;;;;;;6.95;6.13;;;;;;;;;;6314285;27;20047;-78
2022/10/22 07:42:03;;;;;;;12.47;5.73;;;;;;;;;;6329005;27;20048;-79
2022/10/22 07:45:06;;;;;;;8.98;5.97;;;;;;;;;;6320159;27;20047;-79
2022/10/22 07:48:08;;;;;;;8.35;5.95;;;;;;;;;;6326207;27;20098;-79
2022/10/22 07:51:09;;;;;;;7.57;5.63;;;;;;;;;;6282851;28;20096;-80
2022/10/22 07:54:11;;;;;;;8.10;5.25;;;;;;;;;;6281617;27;20043;-79
2022/10/22 07:57:13;;;;;;;9.15;5.15;;;;;;;;;;6283060;28;22875;-79
2022/10/22 08:00:14;;;;;;;5.65;2.92;;;;;;;;;;6312566;27;20456;-78
2022/10/22 08:03:19;;;;;;;4.85;2.65;;;;;;;;;;6310748;27;20047;-77
2022/10/22 08:06:20;;;;;;;6.95;3.35;;;;;;;;;;6310687;27;20035;-77
2022/10/22 08:09:22;;;;;;;4.57;2.50;;;;;;;;;;6312753;27;20115;-77
2022/10/22 08:12:24;;;;;;;7.97;2.28;;;;;;;;;;6317686;27;20047;-77
2022/10/22 08:15:26;;;;;;;4.70;2.83;;;;;;;;;;6315600;27;20044;-77
2022/10/22 08:18:28;;;;;;;6.20;2.55;;;;;;;;;;6315685;28;20044;-77
2022/10/22 08:21:29;;;;;;;3.67;2.30;;;;;;;;;;6312582;28;20154;-77
2022/10/22 08:24:31;;;;;;;5.50;2.60;;;;;;;;;;6314533;28;20040;-76
2022/10/22 08:27:32;;;;;;;3.03;2.30;;;;;;;;;;6313646;28;20044;-78
2022/10/22 08:30:37;;;;;;;6.55;2.67;;;;;;;;;;6297151;27;20048;-77
2022/10/22 08:33:39;;;;;;;7.13;2.60;;;;;;;;;;6292898;27;20415;-79
2022/10/22 08:36:41;;;;;;;5.65;2.40;;;;;;;;;;6308877;27;20136;-79
2022/10/22 08:39:44;;;;;;;4.80;2.60;;;;;;;;;;6321807;27;20046;-79
2022/10/22 08:43:11;;;;;;;7.25;2.42;;;;;;;;;;6326099;27;20047;-80
2022/10/22 08:46:39;;;;;;;4.82;2.33;;;;;;;;;;6301355;27;20084;-79
2022/10/22 08:49:43;;;;;;;7.55;2.47;;;;;;;;;;6306274;27;20975;-78
2022/10/22 08:52:50;;;;;;;4.18;2.40;;;;;;;;;;6310225;27;20124;-79
2022/10/22 08:55:53;;;;;;;5.13;2.40;;;;;;;;;;6302953;27;20036;-79
2022/10/22 08:59:02;;;;;;;5.60;2.22;;;;;;;;;;6304967;27;20530;-79
2022/10/22 09:02:33;;;;;;;4.32;2.10;;;;;;;;;;6323570;27;20035;-78
2022/10/22 09:05:39;;;;;;;5.97;2.65;;;;;;;;;;6261602;28;20043;-79
2022/10/22 09:08:44;;;;;;;7.80;2.90;;;;;;;;;;6320755;28;20055;-79
2022/10/22 09:11:48;;;;;;;7.75;3.45;;;;;;;;;;6301082;28;20039;-80
2022/10/22 09:14:50;;;;;;;7.47;2.50;;;;;;;;;;6316563;27;20127;-80
2022/10/22 09:18:10;;;;;;;6.30;2.20;;;;;;;;;;6301000;27;20048;-79
2022/10/22 09:21:18;;;;;;;7.85;2.60;;;;;;;;;;6297344;28;20836;-77
2022/10/22 09:24:32;;;;;;;4.20;2.20;;;;;;;;;;6317946;27;21931;-78
2022/10/22 09:27:34;;;;;;;5.20;2.08;;;;;;;;;;6295287;28;20052;-78
2022/10/22 09:30:37;;;;;;;6.57;2.13;;;;;;;;;;6312992;27;20092;-78
2022/10/22 09:33:41;;;;;;;5.95;2.20;;;;;;;;;;6298394;27;20055;-79
2022/10/22 09:36:43;;;;;;;4.85;2.30;;;;;;;;;;6319040;27;20052;-79
2022/10/22 09:39:49;;;;;;;8.38;2.40;;;;;;;;;;6286015;27;20044;-78
2022/10/22 09:42:51;;;;;;;2.83;1.83;;;;;;;;;;6319246;27;20196;-78
2022/10/22 09:46:04;;;;;;;6.55;2.17;;;;;;;;;;6305617;27;20054;-79
2022/10/22 09:49:13;;;;;;;3.55;1.98;;;;;;;;;;6325030;27;20047;-79
2022/10/22 09:52:26;;;;;;;6.32;1.67;;;;;;;;;;6314208;27;20063;-79
2022/10/22 09:55:28;;;;;;;4.38;1.92;;;;;;;;;;6299976;27;20123;-80
2022/10/22 09:58:41;;;;;;;4.57;1.75;;;;;;;;;;6311327;27;20036;-79
2022/10/22 10:01:43;;;;;;;16.08;4.55;;;;;;;;;;6322026;27;20084;-80
2022/10/22 10:04:48;;;;;;;6.80;1.97;;;;;;;;;;6318928;27;20049;-78
2022/10/22 10:07:50;;;;;;;2.85;1.45;;;;;;;;;;6303516;28;20039;-78
2022/10/22 10:10:58;;;;;;;3.08;1.55;;;;;;;;;;6319121;27;20039;-77
2022/10/22 10:14:27;;;;;;;3.83;1.90;;;;;;;;;;6324562;27;20052;-78
2022/10/22 10:17:51;;;;;;;4.43;1.50;;;;;;;;;;6257451;27;20275;-79
2022/10/22 10:21:09;;;;;;;6.35;1.77;;;;;;;;;;6302113;27;20659;-80
2022/10/22 10:24:13;;;;;;;3.42;1.30;;;;;;;;;;6313018;27;20023;-77
2022/10/22 10:27:21;;;;;;;5.05;1.30;;;;;;;;;;6323938;27;20118;-80
2022/10/22 10:30:23;;;;;;;2.78;1.30;;;;;;;;;;6301413;27;20056;-78
2022/10/22 10:33:43;;;;;;;6.47;1.30;;;;;;;;;;6298473;27;20062;-78
2022/10/22 10:37:11;;;;;;;3.13;1.20;;;;;;;;;;6321350;27;20048;-80
2022/10/22 10:40:30;;;;;;;2.90;1.00;;;;;;;;;;6323079;27;20568;-79
2022/10/22 10:43:40;;;;;;;4.18;1.17;;;;;;;;;;6312845;27;20054;-80
2022/10/22 10:46:54;;;;;;;3.70;1.77;;;;;;;;;;6324599;27;20052;-79
2022/10/22 10:50:25;;;;;;;5.63;1.38;;;;;;;;;;6324091;27;20094;-80
2022/10/22 10:53:44;;;;;;;3.40;1.10;;;;;;;;;;6304217;27;20039;-80
2022/10/22 10:57:12;;;;;;;5.05;1.25;;;;;;;;;;6320773;27;20048;-80
2022/10/22 11:00:18;;;;;;;5.65;1.40;;;;;;;;;;6324122;27;20050;-80
2022/10/22 11:03:33;;;;;;;3.25;1.20;;;;;;;;;;6301249;27;20047;-80
2022/10/22 11:06:38;;;;;;;2.58;1.00;;;;;;;;;;6314092;27;20048;-81
2022/10/22 11:09:49;;;;;;;2.92;1.00;;;;;;;;;;6310918;27;20047;-80
2022/10/22 11:12:52;;;;;;;3.28;1.20;;;;;;;;;;6317976;27;20078;-79
2022/10/22 11:16:14;;;;;;;4.25;0.98;;;;;;;;;;6300086;27;20113;-78
2022/10/22 11:19:25;;;;;;;5.85;1.10;;;;;;;;;;6306031;27;20791;-78
2022/10/22 11:23:04;;;;;;;14.18;1.50;;;;;;;;;;6306617;27;20051;-78
2022/10/22 11:26:35;;;;;;;2.85;1.10;;;;;;;;;;6312282;27;20055;-78
2022/10/22 11:29:42;;;;;;;3.38;1.20;;;;;;;;;;6303152;27;20047;-78
2022/10/22 11:32:49;;;;;;;1.83;0.88;;;;;;;;;;6297646;28;20043;-79
2022/10/22 11:35:52;;;;;;;6.72;1.13;;;;;;;;;;6324278;27;20039;-78
2022/10/22 11:38:54;;;;;;;4.28;1.02;;;;;;;;;;6301247;28;20083;-79
2022/10/22 11:42:04;;;;;;;5.13;1.40;;;;;;;;;;6312695;27;20051;-79
2022/10/22 11:45:27;;;;;;;5.63;1.15;;;;;;;;;;6311412;27;20046;-78
2022/10/22 11:48:36;;;;;;;3.10;1.08;;;;;;;;;;6314937;27;20047;-79
2022/10/22 11:51:42;;;;;;;2.92;1.00;;;;;;;;;;6295970;27;20050;-79
2022/10/22 11:54:44;;;;;;;5.38;1.10;;;;;;;;;;6320127;28;20100;-79
2022/10/22 11:57:46;;;;;;;3.65;1.35;;;;;;;;;;6320740;27;20079;-80
2022/10/22 12:00:48;;;;;;;3.90;1.10;;;;;;;;;;6319085;27;20267;-80
2022/10/22 12:03:57;;;;;;;1.80;0.80;;;;;;;;;;6311671;27;20036;-80
2022/10/22 12:07:00;;;;;;;6.40;1.50;;;;;;;;;;6306875;28;20426;-80
2022/10/22 12:10:17;;;;;;;4.60;1.08;;;;;;;;;;6311793;27;20048;-81
2022/10/22 12:13:59;;;;;;;2.67;1.48;;;;;;;;;;6314009;28;20043;-80
2022/10/22 12:17:08;;;;;;;3.25;1.02;;;;;;;;;;6319110;27;20047;-80
2022/10/22 12:20:12;;;;;;;2.55;1.00;;;;;;;;;;6269382;28;20051;-80
2022/10/22 12:23:14;;;;;;;3.85;1.00;;;;;;;;;;6303144;28;20556;-80
2022/10/22 12:26:24;;;;;;;2.35;0.98;;;;;;;;;;6318375;27;20398;-80
2022/10/22 12:29:27;;;;;;;4.05;1.00;;;;;;;;;;6305298;28;20067;-80
2022/10/22 12:32:35;;;;;;;2.75;0.90;;;;;;;;;;6324205;27;20061;-81
2022/10/22 12:35:44;;;;;;;3.38;1.10;;;;;;;;;;6324643;27;20419;-80
2022/10/22 12:38:46;;;;;;;2.55;0.80;;;;;;;;;;6321021;27;20046;-79
2022/10/22 12:41:48;;;;;;;3.65;1.02;;;;;;;;;;6306117;28;20090;-80
2022/10/22 12:44:54;;;;;;;6.60;1.30;;;;;;;;;;6320643;27;20039;-78
2022/10/22 12:47:59;;;;;;;3.38;1.00;;;;;;;;;;6321061;27;20570;-79
2022/10/22 12:51:03;;;;;;;3.35;1.00;;;;;;;;;;6292429;28;20054;-80
2022/10/22 12:54:34;;;;;;;5.70;1.10;;;;;;;;;;6320325;27;20051;-80
2022/10/22 12:57:39;;;;;;;7.10;1.00;;;;;;;;;;6304798;27;20046;-80
2022/10/22 13:00:40;;;;;;;4.05;1.08;;;;;;;;;;6316805;27;20066;-80
2022/10/22 13:03:46;;;;;;;2.75;0.80;;;;;;;;;;6306440;27;20047;-80
2022/10/22 13:06:50;;;;;;;4.53;0.98;;;;;;;;;;6306031;28;20633;-80
2022/10/22 13:09:56;;;;;;;4.80;0.90;;;;;;;;;;6328196;27;20051;-79
2022/10/22 13:13:02;;;;;;;6.28;1.13;;;;;;;;;;6322816;27;20120;-80
2022/10/22 13:16:26;;;;;;;5.95;0.90;;;;;;;;;;6314344;27;20039;-80
2022/10/22 13:19:39;;;;;;;4.47;1.08;;;;;;;;;;6325571;28;20063;-81
2022/10/22 13:22:53;;;;;;;4.05;0.65;;;;;;;;;;6321417;27;20107;-80
2022/10/22 13:26:13;;;;;;;3.22;0.82;;;;;;;;;;6310171;28;20051;-81
2022/10/22 13:29:18;;;;;;;3.58;0.98;;;;;;;;;;6322835;28;20044;-80
2022/10/22 13:32:24;;;;;;;2.97;0.73;;;;;;;;;;6326323;27;20047;-80
2022/10/22 13:35:31;;;;;;;5.15;0.82;;;;;;;;;;6327783;27;20114;-80
2022/10/22 13:38:32;;;;;;;1.80;1.00;;;;;;;;;;6313886;27;20511;-80
2022/10/22 13:41:38;;;;;;;8.10;1.50;;;;;;;;;;6326258;27;20062;-80
2022/10/22 13:44:40;;;;;;;2.55;0.80;;;;;;;;;;6322534;28;20047;-80
2022/10/22 13:47:47;;;;;;;2.10;0.70;;;;;;;;;;6332157;27;20040;-79
2022/10/22 13:50:49;;;;;;;2.85;1.10;;;;;;;;;;6315474;27;20062;-80
2022/10/22 13:53:52;;;;;;;2.50;0.70;;;;;;;;;;6307489;27;20059;-79
2022/10/22 13:56:54;;;;;;;4.10;0.70;;;;;;;;;;6313792;27;20042;-80
2022/10/22 13:59:55;;;;;;;2.67;0.60;;;;;;;;;;6315111;27;20055;-80
2022/10/22 14:02:58;;;;;;;0.90;0.68;;;;;;;;;;6321242;27;20048;-80
2022/10/22 14:06:00;;;;;;;3.55;0.60;;;;;;;;;;6313076;27;20959;-80
2022/10/22 14:09:07;;;;;;;3.43;0.70;;;;;;;;;;6309108;27;20134;-79
2022/10/22 14:12:14;;;;;;;1.15;0.55;;;;;;;;;;6314694;27;20123;-81
2022/10/22 14:15:18;;;;;;;3.38;0.90;;;;;;;;;;6322143;27;20400;-81
2022/10/22 14:18:25;;;;;;;2.58;0.85;;;;;;;;;;6315480;27;20052;-80
2022/10/22 14:21:31;;;;;;;2.42;0.80;;;;;;;;;;6315966;27;20055;-80
2022/10/22 14:24:33;;;;;;;6.18;1.05;;;;;;;;;;6332971;27;20068;-81
2022/10/22 14:27:37;;;;;;;2.92;0.85;;;;;;;;;;6325535;27;20061;-80
2022/10/22 14:30:40;;;;;;;5.05;0.98;;;;;;;;;;6329073;27;20044;-80
2022/10/22 14:33:41;;;;;;;2.45;0.90;;;;;;;;;;6326942;27;20043;-79
2022/10/22 14:36:43;;;;;;;3.95;1.10;;;;;;;;;;6337113;27;20145;-80
2022/10/22 14:39:50;;;;;;;3.85;1.10;;;;;;;;;;6314802;27;20100;-81
2022/10/22 14:42:52;;;;;;;6.50;1.00;;;;;;;;;;6319078;27;20046;-80
2022/10/22 14:45:54;;;;;;;3.90;0.90;;;;;;;;;;6307040;28;20047;-80
2022/10/22 14:48:56;;;;;;;2.92;0.80;;;;;;;;;;6324013;27;20872;-81
2022/10/22 14:51:57;;;;;;;2.72;0.80;;;;;;;;;;6305889;27;20040;-81
2022/10/22 14:54:59;;;;;;;2.53;1.00;;;;;;;;;;6323678;27;20624;-81
2022/10/22 14:58:01;;;;;;;7.65;1.40;;;;;;;;;;6325290;27;20044;-80
2022/10/22 15:01:03;;;;;;;7.43;1.95;;;;;;;;;;6315491;27;20055;-80
2022/10/22 15:04:05;;;;;;;2.88;1.00;;;;;;;;;;6298694;27;20039;-81
2022/10/22 15:07:06;;;;;;;4.78;1.17;;;;;;;;;;6312221;27;20059;-80
2022/10/22 15:10:08;;;;;;;5.32;1.17;;;;;;;;;;6305661;28;20043;-81
2022/10/22 15:13:10;;;;;;;6.23;1.63;;;;;;;;;;6286917;28;20039;-81
2022/10/22 15:16:15;;;;;;;4.18;1.30;;;;;;;;;;6333069;27;20043;-82
2022/10/22 15:19:16;;;;;;;6.03;1.30;;;;;;;;;;6315453;28;20039;-81
2022/10/22 15:22:18;;;;;;;3.33;1.17;;;;;;;;;;6299854;28;20079;-80
2022/10/22 15:25:20;;;;;;;3.30;1.00;;;;;;;;;;6325923;27;20097;-79
2022/10/22 15:28:23;;;;;;;3.17;1.40;;;;;;;;;;6336182;27;20059;-79
2022/10/22 15:31:45;;;;;;;;;;;;;;;;;;6330584;27;20554;-81
2022/10/22 15:34:46;;;;;;;5.13;1.40;;;;;;;;;;6331739;27;19931;-80
2022/10/22 15:37:50;;;;;;;6.50;2.13;;;;;;;;;;6308287;27;20059;-81
2022/10/22 15:41:00;;;;;;;7.70;1.90;;;;;;;;;;6322622;27;20039;-81
2022/10/22 15:44:07;;;;;;;8.68;3.17;;;;;;;;;;6310310;27;20046;-81
2022/10/22 15:47:09;;;;;;;5.30;1.60;;;;;;;;;;6319540;27;20051;-79
2022/10/22 15:50:11;;;;;;;40.33;19.97;;;;;;;;;;6322479;27;20044;-79
2022/10/22 15:53:13;;;;;;;50.95;25.38;;;;;;;;;;6320090;28;20044;-78
2022/10/22 15:56:14;;;;;;;7.93;2.35;;;;;;;;;;6289657;28;20058;-79
2022/10/22 15:59:16;;;;;;;5.80;2.05;;;;;;;;;;6321678;28;20118;-79
2022/10/22 16:02:18;;;;;;;12.37;6.87;;;;;;;;;;6307445;28;20047;-79
2022/10/22 16:05:20;;;;;;;10.50;5.05;;;;;;;;;;6322568;27;20047;-78
2022/10/22 16:08:21;;;;;;;3.80;2.28;;;;;;;;;;6330814;27;20063;-80
2022/10/22 16:11:24;;;;;;;9.63;5.10;;;;;;;;;;6306874;28;20054;-79
2022/10/22 16:14:27;;;;;;;23.77;11.40;;;;;;;;;;6324342;27;20071;-78
2022/10/22 16:17:29;;;;;;;14.70;5.57;;;;;;;;;;6323474;27;20051;-79
2022/10/22 16:20:30;;;;;;;7.32;2.35;;;;;;;;;;6307159;28;20048;-80
2022/10/22 16:23:32;;;;;;;8.00;2.55;;;;;;;;;;6325230;27;20035;-79
2022/10/22 16:26:34;;;;;;;6.30;2.58;;;;;;;;;;6311630;27;20095;-80
2022/10/22 16:29:37;;;;;;;7.03;2.40;;;;;;;;;;6322866;27;20047;-79
2022/10/22 16:32:39;;;;;;;4.50;2.20;;;;;;;;;;6335153;27;20103;-79
2022/10/22 16:35:41;;;;;;;12.50;3.33;;;;;;;;;;6329542;27;20046;-80
2022/10/22 16:38:47;;;;;;;4.82;2.38;;;;;;;;;;6315613;27;20047;-79
2022/10/22 16:41:49;;;;;;;8.30;3.25;;;;;;;;;;6316305;28;20570;-79
2022/10/22 16:44:50;;;;;;;19.60;12.50;;;;;;;;;;6330633;27;20039;-80
2022/10/22 16:47:52;;;;;;;25.60;13.05;;;;;;;;;;6329749;27;20148;-79
2022/10/22 16:50:54;;;;;;;23.42;14.70;;;;;;;;;;6329129;27;20130;-79
2022/10/22 16:53:56;;;;;;;37.75;18.15;;;;;;;;;;6315527;27;20054;-80
2022/10/22 16:56:58;;;;;;;30.75;13.55;;;;;;;;;;6309742;28;20545;-80
2022/10/22 16:59:59;;;;;;;46.65;21.02;;;;;;;;;;6320687;27;20069;-79
2022/10/22 17:03:01;;;;;;;89.45;42.35;;;;;;;;;;6311845;28;20120;-79
2022/10/22 17:06:04;;;;;;;38.17;22.70;;;;;;;;;;6332017;27;20074;-79
2022/10/22 17:09:05;;;;;;;14.80;8.48;;;;;;;;;;6315349;28;20094;-78
2022/10/22 17:12:07;;;;;;;14.60;5.22;;;;;;;;;;6311002;28;20036;-79
2022/10/22 17:15:09;;;;;;;17.35;7.80;;;;;;;;;;6332962;27;20103;-79
2022/10/22 17:18:11;;;;;;;13.43;4.33;;;;;;;;;;6330687;27;20039;-78
2022/10/22 17:21:14;;;;;;;15.80;7.93;;;;;;;;;;6315520;28;20043;-79
2022/10/22 17:24:17;;;;;;;22.42;11.07;;;;;;;;;;6331643;27;20055;-80
2022/10/22 17:27:18;;;;;;;20.98;9.95;;;;;;;;;;6325216;27;20048;-81
2022/10/22 17:30:21;;;;;;;23.38;12.90;;;;;;;;;;6316820;27;20064;-81
2022/10/22 17:33:27;;;;;;;20.88;13.07;;;;;;;;;;6312197;27;20040;-81
2022/10/22 17:36:30;;;;;;;20.08;13.48;;;;;;;;;;6317523;27;20036;-81
2022/10/22 17:39:36;;;;;;;27.50;21.98;;;;;;;;;;6312958;27;20485;-80
2022/10/22 17:42:38;;;;;;;39.17;33.28;;;;;;;;;;6311083;27;20039;-80
2022/10/22 17:45:40;;;;;;;41.37;35.07;;;;;;;;;;6328992;27;20077;-80
2022/10/22 17:48:42;;;;;;;20.15;13.05;;;;;;;;;;6315747;27;20520;-79
2022/10/22 17:51:44;;;;;;;16.08;8.98;;;;;;;;;;6322433;27;20078;-80
2022/10/22 17:54:47;;;;;;;11.80;6.85;;;;;;;;;;6307446;27;20039;-80
2022/10/22 17:57:49;;;;;;;20.25;11.73;;;;;;;;;;6311364;27;20151;-81
2022/10/22 18:00:51;;;;;;;35.42;21.77;;;;;;;;;;6320218;28;20501;-80
2022/10/22 18:03:57;;;;;;;18.33;9.30;;;;;;;;;;6321463;27;20059;-81
2022/10/22 18:06:59;;;;;;;10.98;4.85;;;;;;;;;;6314887;27;20075;-80
2022/10/22 18:10:01;;;;;;;11.73;5.35;;;;;;;;;;6332804;27;20050;-81
2022/10/22 18:13:03;;;;;;;18.58;6.00;;;;;;;;;;6312836;28;20134;-80
2022/10/22 18:16:06;;;;;;;12.93;6.22;;;;;;;;;;6290082;27;20044;-82
2022/10/22 18:19:09;;;;;;;13.95;5.97;;;;;;;;;;6327622;27;20066;-81
2022/10/22 18:22:10;;;;;;;8.57;4.85;;;;;;;;;;6305939;28;21084;-81
2022/10/22 18:25:12;;;;;;;14.00;6.20;;;;;;;;;;6312039;27;20491;-80